Time;durP1;ratioP1;P1;durP2;ratioP2;P2;SDS_P1;SDS_P2;PMS_P1;PMS_P2;Temp;Humidity;BMP_temperature;BMP_pressure;BME280_temperature;BME280_humidity;BME280_pressure;Samples;Min_cycle;Max_cycle;Signal;HPM_P1;HPM_P2
2022/04/05 00:01:11;;;;;;;16.27;2.88;;;5.10;92.90;;;;;;5074134;28;20028;-82
2022/04/05 00:03:37;;;;;;;12.88;2.70;;;5.10;92.80;;;;;;5071136;28;20029;-82
2022/04/05 00:06:02;;;;;;;23.42;3.80;;;5.10;92.80;;;;;;5072206;28;20025;-82
2022/04/05 00:08:28;;;;;;;19.95;3.03;;;5.10;92.70;;;;;;5073928;28;20104;-82
2022/04/05 00:10:53;;;;;;;17.38;3.03;;;5.10;92.70;;;;;;5072704;28;20028;-82
2022/04/05 00:13:19;;;;;;;15.80;2.80;;;5.10;92.40;;;;;;5072507;28;20050;-82
2022/04/05 00:15:44;;;;;;;16.25;2.58;;;5.10;92.30;;;;;;5070855;28;20469;-82
2022/04/05 00:18:10;;;;;;;17.98;3.00;;;5.10;92.30;;;;;;5071010;28;20103;-82
2022/04/05 00:20:36;;;;;;;23.85;3.05;;;5.10;92.30;;;;;;5071545;28;20027;-82
2022/04/05 00:23:02;;;;;;;18.40;2.88;;;5.10;92.30;;;;;;5074174;28;20448;-82
2022/04/05 00:25:28;;;;;;;23.58;2.63;;;5.10;92.50;;;;;;5071775;28;21515;-82
2022/04/05 00:27:53;;;;;;;21.42;2.67;;;5.00;92.50;;;;;;5071831;28;20109;-82
2022/04/05 00:30:19;;;;;;;16.90;2.30;;;5.10;92.50;;;;;;5073938;28;20467;-82
2022/04/05 00:32:45;;;;;;;13.07;2.30;;;5.00;92.30;;;;;;5070171;28;20100;-82
2022/04/05 00:35:11;;;;;;;23.00;3.45;;;5.10;92.20;;;;;;5074631;28;20112;-82
2022/04/05 00:37:38;;;;;;;15.45;2.65;;;5.10;92.10;;;;;;5064207;28;20025;-82
2022/04/05 00:40:05;;;;;;;18.52;2.45;;;5.00;92.10;;;;;;5075244;28;20468;-82
2022/04/05 00:42:31;;;;;;;13.43;2.80;;;5.00;92.20;;;;;;5075676;28;20472;-82
2022/04/05 00:44:58;;;;;;;20.55;2.75;;;4.90;92.30;;;;;;5066769;28;20032;-82
2022/04/05 00:47:24;;;;;;;16.40;2.88;;;4.80;92.40;;;;;;5077099;28;20033;-82
2022/04/05 00:49:52;;;;;;;14.20;2.20;;;4.80;92.60;;;;;;5066965;28;20116;-82
2022/04/05 00:52:19;;;;;;;19.00;2.42;;;4.80;92.70;;;;;;5068138;28;20119;-82
2022/04/05 00:54:47;;;;;;;16.90;2.33;;;4.90;92.70;;;;;;5067603;28;20029;-83
2022/04/05 00:57:21;;;;;;;15.65;2.55;;;4.90;92.80;;;;;;5075987;28;20016;-82
2022/04/05 00:59:52;;;;;;;11.85;2.42;;;4.90;92.70;;;;;;5062770;28;20021;-82
2022/04/05 01:02:18;;;;;;;;;;;5.00;92.50;;;;;;5074487;28;20028;-82
2022/04/05 01:04:45;;;;;;;17.23;2.70;;;5.00;92.40;;;;;;5074932;28;19919;-82
2022/04/05 01:07:14;;;;;;;17.30;2.50;;;5.00;92.30;;;;;;5077127;28;20539;-82
2022/04/05 01:09:40;;;;;;;16.40;2.50;;;5.00;92.40;;;;;;5075287;28;20033;-82
2022/04/05 01:12:08;;;;;;;15.10;2.47;;;5.00;92.40;;;;;;5072330;28;20028;-82
2022/04/05 01:14:33;;;;;;;12.98;2.38;;;5.00;92.40;;;;;;5063377;28;20075;-82
2022/04/05 01:16:59;;;;;;;8.57;1.70;;;5.00;91.90;;;;;;5071623;28;20020;-82
2022/04/05 01:19:26;;;;;;;11.20;2.22;;;4.90;91.60;;;;;;5071674;28;20066;-82
2022/04/05 01:21:51;;;;;;;7.53;1.77;;;4.90;91.10;;;;;;5074561;28;20132;-83
2022/04/05 01:24:17;;;;;;;10.65;2.25;;;4.80;91.60;;;;;;5064002;28;20128;-82
2022/04/05 01:26:43;;;;;;;12.50;2.00;;;4.80;91.80;;;;;;5072113;28;20542;-82
2022/04/05 01:29:10;;;;;;;8.65;1.50;;;4.70;92.00;;;;;;5073735;28;20021;-82
2022/04/05 01:31:37;;;;;;;9.30;1.90;;;4.70;92.20;;;;;;5060685;28;20029;-82
2022/04/05 01:34:02;;;;;;;12.02;1.77;;;4.70;92.30;;;;;;5072196;28;20032;-82
2022/04/05 01:36:28;;;;;;;11.77;2.03;;;4.60;92.40;;;;;;5073033;28;20155;-82
2022/04/05 01:38:54;;;;;;;8.57;1.65;;;4.60;92.30;;;;;;5056786;28;20096;-82
2022/04/05 01:41:19;;;;;;;9.00;1.70;;;4.50;92.30;;;;;;5058000;28;20021;-83
2022/04/05 01:43:45;;;;;;;8.48;1.52;;;4.60;92.40;;;;;;5075350;28;20029;-82
2022/04/05 01:46:10;;;;;;;9.32;1.70;;;4.50;92.40;;;;;;5054973;28;20100;-82
2022/04/05 01:48:36;;;;;;;10.25;1.35;;;4.40;92.50;;;;;;5056116;28;20020;-83
2022/04/05 01:51:02;;;;;;;8.40;1.58;;;4.40;92.40;;;;;;5055156;28;20383;-82
2022/04/05 01:53:27;;;;;;;3.78;1.35;;;4.40;92.40;;;;;;5073117;28;20059;-82
2022/04/05 01:55:53;;;;;;;10.15;1.67;;;4.30;92.50;;;;;;5057651;28;20029;-82
2022/04/05 01:58:18;;;;;;;8.68;1.60;;;4.30;92.40;;;;;;5076251;28;20047;-82
2022/04/05 02:00:44;;;;;;;17.35;1.63;;;4.30;92.50;;;;;;5057245;28;20028;-82
2022/04/05 02:03:09;;;;;;;11.05;1.67;;;4.30;92.40;;;;;;5043346;28;20537;-82
2022/04/05 02:05:35;;;;;;;8.40;1.60;;;4.30;92.30;;;;;;5055418;28;20031;-82
2022/04/05 02:08:00;;;;;;;8.45;1.48;;;4.30;92.40;;;;;;5057246;28;20395;-82
2022/04/05 02:10:26;;;;;;;12.50;1.73;;;4.30;92.30;;;;;;5057857;28;20121;-82
2022/04/05 02:12:54;;;;;;;14.63;1.70;;;4.40;92.10;;;;;;5057964;28;20399;-82
2022/04/05 02:15:21;;;;;;;10.05;1.45;;;4.40;92.20;;;;;;5075388;28;20031;-82
2022/04/05 02:17:46;;;;;;;6.72;1.33;;;4.40;92.30;;;;;;5056203;28;20024;-82
2022/04/05 02:20:13;;;;;;;10.40;1.80;;;4.40;92.30;;;;;;5055447;28;20492;-82
2022/04/05 02:22:39;;;;;;;10.05;1.88;;;4.40;92.30;;;;;;5056175;28;20029;-82
2022/04/05 02:25:06;;;;;;;15.02;1.65;;;4.40;92.20;;;;;;5073629;28;20039;-82
2022/04/05 02:27:31;;;;;;;9.02;1.60;;;4.40;92.20;;;;;;5061152;28;20047;-82
2022/04/05 02:29:57;;;;;;;10.73;1.98;;;4.40;92.40;;;;;;5047085;28;20377;-82
2022/04/05 02:32:22;;;;;;;14.55;1.85;;;4.40;92.50;;;;;;5068699;28;20032;-82
2022/04/05 02:34:48;;;;;;;10.23;1.38;;;4.40;92.50;;;;;;5052182;28;20023;-82
2022/04/05 02:37:13;;;;;;;8.00;1.20;;;4.40;92.50;;;;;;5051182;28;20120;-82
2022/04/05 02:39:39;;;;;;;10.73;1.60;;;4.40;92.40;;;;;;5074394;28;20025;-82
2022/04/05 02:42:04;;;;;;;13.00;2.08;;;4.40;92.30;;;;;;5044767;28;20467;-82
2022/04/05 02:44:30;;;;;;;10.45;1.25;;;4.30;92.30;;;;;;5055189;28;20031;-82
2022/04/05 02:46:57;;;;;;;8.43;1.67;;;4.30;92.20;;;;;;5055213;28;20494;-82
2022/04/05 02:49:23;;;;;;;11.52;1.73;;;4.30;92.20;;;;;;5054363;28;20020;-82
2022/04/05 02:51:48;;;;;;;8.65;1.63;;;4.20;92.40;;;;;;5072963;28;20135;-82
2022/04/05 02:54:14;;;;;;;8.15;1.50;;;4.20;92.30;;;;;;5055507;28;20027;-82
2022/04/05 02:56:39;;;;;;;13.38;1.55;;;4.20;92.40;;;;;;5056242;28;20024;-82
2022/04/05 02:59:05;;;;;;;11.45;1.67;;;4.10;92.50;;;;;;5047452;28;20053;-82
2022/04/05 03:01:30;;;;;;;11.75;1.30;;;4.10;92.60;;;;;;5069153;28;20048;-82
2022/04/05 03:03:56;;;;;;;7.30;1.42;;;4.20;92.60;;;;;;5054591;28;20372;-82
2022/04/05 03:06:21;;;;;;;12.85;1.50;;;4.20;92.60;;;;;;5051238;28;20036;-82
2022/04/05 03:08:47;;;;;;;12.15;1.73;;;4.20;92.60;;;;;;5074093;28;20029;-82
2022/04/05 03:11:13;;;;;;;11.82;1.80;;;4.10;92.60;;;;;;5055264;28;20086;-82
2022/04/05 03:13:39;;;;;;;13.65;1.63;;;4.10;92.50;;;;;;5053174;28;20079;-82
2022/04/05 03:16:05;;;;;;;11.35;1.70;;;4.20;92.20;;;;;;5045202;28;20025;-82
2022/04/05 03:18:30;;;;;;;11.75;1.48;;;4.20;91.90;;;;;;5054988;28;20040;-82
2022/04/05 03:20:56;;;;;;;12.02;1.90;;;4.10;91.90;;;;;;5055392;28;20021;-82
2022/04/05 03:23:22;;;;;;;5.57;1.40;;;4.10;91.70;;;;;;5056410;28;20483;-82
2022/04/05 03:25:48;;;;;;;9.70;1.73;;;4.10;91.70;;;;;;5056282;28;20024;-82
2022/04/05 03:28:14;;;;;;;14.93;1.75;;;4.10;91.50;;;;;;5062578;28;20041;-82
2022/04/05 03:30:39;;;;;;;8.02;1.25;;;4.10;91.50;;;;;;5073432;28;20082;-82
2022/04/05 03:33:05;;;;;;;7.07;1.48;;;4.10;91.30;;;;;;5054101;28;20039;-82
2022/04/05 03:35:30;;;;;;;9.63;1.25;;;4.10;91.20;;;;;;5052410;28;20041;-82
2022/04/05 03:37:56;;;;;;;13.68;1.88;;;4.00;91.10;;;;;;5065572;28;20379;-81
2022/04/05 03:40:21;;;;;;;6.88;1.17;;;3.90;91.10;;;;;;5059758;28;20025;-82
2022/04/05 03:42:47;;;;;;;12.93;2.08;;;4.00;90.90;;;;;;5072854;28;20398;-82
2022/04/05 03:45:12;;;;;;;10.25;1.85;;;3.90;90.90;;;;;;5059827;28;20107;-82
2022/04/05 03:47:38;;;;;;;16.50;1.77;;;3.80;91.10;;;;;;5071004;28;20029;-82
2022/04/05 03:50:04;;;;;;;13.20;1.52;;;3.80;91.10;;;;;;5070972;28;20036;-82
2022/04/05 03:52:30;;;;;;;9.75;1.70;;;3.70;91.20;;;;;;5071077;28;20033;-82
2022/04/05 03:54:55;;;;;;;5.38;1.67;;;3.70;91.50;;;;;;5072507;28;20032;-82
2022/04/05 03:57:21;;;;;;;12.95;1.80;;;3.70;91.20;;;;;;5073096;28;20451;-82
2022/04/05 03:59:46;;;;;;;15.45;1.83;;;3.70;91.20;;;;;;5071692;28;20025;-82
2022/04/05 04:02:12;;;;;;;8.35;1.60;;;3.60;91.50;;;;;;5066863;28;20399;-82
2022/04/05 04:04:38;;;;;;;5.97;1.50;;;3.60;91.70;;;;;;5065711;28;20033;-82
2022/04/05 04:07:04;;;;;;;7.80;1.65;;;3.60;91.70;;;;;;5070547;28;20021;-82
2022/04/05 04:09:30;;;;;;;7.40;1.50;;;3.50;91.80;;;;;;5067219;28;20086;-82
2022/04/05 04:11:55;;;;;;;14.95;1.80;;;3.50;91.90;;;;;;5078329;28;20071;-82
2022/04/05 04:14:21;;;;;;;11.80;1.60;;;3.40;92.10;;;;;;5062103;28;20708;-82
2022/04/05 04:16:46;;;;;;;11.60;1.50;;;3.40;92.10;;;;;;5067130;28;20615;-82
2022/04/05 04:19:12;;;;;;;15.00;1.63;;;3.40;92.20;;;;;;5074482;28;20121;-82
2022/04/05 04:21:37;;;;;;;9.48;1.80;;;3.40;92.30;;;;;;5076175;28;20036;-82
2022/04/05 04:24:03;;;;;;;5.85;1.77;;;3.30;92.40;;;;;;5076258;28;20017;-82
2022/04/05 04:26:29;;;;;;;17.33;2.10;;;3.30;92.40;;;;;;5075571;28;20029;-82
2022/04/05 04:28:57;;;;;;;15.70;1.75;;;3.30;92.60;;;;;;5063402;28;20021;-82
2022/04/05 04:31:23;;;;;;;9.48;2.17;;;3.30;92.50;;;;;;5075101;28;20089;-82
2022/04/05 04:33:49;;;;;;;15.07;2.22;;;3.30;92.50;;;;;;5074467;28;20107;-82
2022/04/05 04:36:14;;;;;;;14.82;2.05;;;3.30;92.50;;;;;;5067649;28;20466;-82
2022/04/05 04:38:40;;;;;;;17.35;1.85;;;3.30;92.40;;;;;;5055922;28;20055;-83
2022/04/05 04:41:05;;;;;;;13.13;2.35;;;3.40;92.40;;;;;;5046713;28;20029;-83
2022/04/05 04:43:31;;;;;;;9.20;1.75;;;3.40;92.30;;;;;;5075550;28;20421;-82
2022/04/05 04:45:56;;;;;;;11.57;1.42;;;3.40;92.20;;;;;;5058434;28;20029;-82
2022/04/05 04:48:22;;;;;;;18.88;2.40;;;3.40;92.10;;;;;;5058280;28;20025;-82
2022/04/05 04:50:48;;;;;;;14.73;2.17;;;3.40;92.10;;;;;;5047251;28;20032;-82
2022/04/05 04:53:14;;;;;;;12.48;1.80;;;3.30;92.10;;;;;;5072599;28;20107;-82
2022/04/05 04:55:40;;;;;;;11.18;1.80;;;3.30;92.20;;;;;;5076385;28;20024;-82
2022/04/05 04:58:05;;;;;;;11.93;2.00;;;3.30;92.30;;;;;;5076381;28;20154;-82
2022/04/05 05:00:31;;;;;;;10.60;1.83;;;3.20;92.30;;;;;;5075701;28;20033;-82
2022/04/05 05:02:56;;;;;;;14.00;1.55;;;3.20;92.40;;;;;;5073356;28;20036;-82
2022/04/05 05:05:22;;;;;;;16.70;2.15;;;3.20;92.50;;;;;;5057519;28;20119;-82
2022/04/05 05:07:50;;;;;;;14.13;2.00;;;3.20;92.50;;;;;;5045066;28;20028;-82
2022/04/05 05:10:17;;;;;;;8.07;1.83;;;3.10;92.50;;;;;;5057252;28;20028;-82
2022/04/05 05:12:44;;;;;;;8.57;2.08;;;3.10;92.60;;;;;;5056677;28;20082;-82
2022/04/05 05:15:13;;;;;;;9.80;2.05;;;3.10;92.70;;;;;;5057172;28;20025;-82
2022/04/05 05:17:39;;;;;;;12.70;1.88;;;3.10;92.90;;;;;;5047909;28;20032;-82
2022/04/05 05:20:06;;;;;;;9.52;2.22;;;3.20;93.00;;;;;;5073434;28;20531;-82
2022/04/05 05:22:32;;;;;;;12.73;1.92;;;3.20;93.20;;;;;;5057043;28;20052;-83
2022/04/05 05:24:58;;;;;;;19.73;1.88;;;3.30;93.30;;;;;;5057219;28;20036;-81
2022/04/05 05:27:24;;;;;;;12.10;1.88;;;3.30;93.40;;;;;;5066822;28;20036;-82
2022/04/05 05:29:49;;;;;;;14.35;1.95;;;3.40;93.60;;;;;;5056626;28;20039;-82
2022/04/05 05:32:15;;;;;;;18.00;2.38;;;3.40;93.60;;;;;;5056469;28;20058;-82
2022/04/05 05:34:40;;;;;;;12.40;1.92;;;3.40;93.80;;;;;;5070179;28;20081;-83
2022/04/05 05:37:06;;;;;;;11.00;1.52;;;3.50;93.90;;;;;;5074448;28;20052;-82
2022/04/05 05:39:32;;;;;;;18.63;2.22;;;3.60;94.00;;;;;;5055063;28;20024;-82
2022/04/05 05:41:58;;;;;;;14.98;2.75;;;3.60;94.10;;;;;;5057090;28;20020;-82
2022/04/05 05:44:24;;;;;;;10.05;2.17;;;3.60;94.10;;;;;;5040328;28;20032;-82
2022/04/05 05:46:50;;;;;;;13.63;2.38;;;3.70;94.30;;;;;;5055384;28;20020;-82
2022/04/05 05:49:16;;;;;;;11.95;2.05;;;3.70;94.30;;;;;;5071100;28;20468;-82
2022/04/05 05:51:42;;;;;;;7.35;1.98;;;3.70;94.30;;;;;;5054893;28;20074;-82
2022/04/05 05:54:08;;;;;;;16.83;1.95;;;3.80;94.30;;;;;;5055817;28;20037;-82
2022/04/05 05:56:33;;;;;;;19.92;2.25;;;3.80;94.30;;;;;;5074902;28;20025;-82
2022/04/05 05:58:59;;;;;;;18.58;2.05;;;3.80;94.30;;;;;;5075083;28;20078;-82
2022/04/05 06:01:24;;;;;;;12.27;2.40;;;3.80;94.30;;;;;;5055906;28;20585;-82
2022/04/05 06:03:50;;;;;;;13.15;2.58;;;3.80;94.20;;;;;;5055903;28;20060;-82
2022/04/05 06:06:16;;;;;;;17.92;2.38;;;3.80;94.20;;;;;;5054407;28;20056;-82
2022/04/05 06:08:42;;;;;;;9.38;2.60;;;3.90;94.10;;;;;;5071808;28;20039;-82
2022/04/05 06:11:08;;;;;;;10.27;2.35;;;3.90;94.00;;;;;;5057118;28;20387;-82
2022/04/05 06:13:34;;;;;;;12.77;2.58;;;3.90;94.00;;;;;;5075040;28;20025;-82
2022/04/05 06:16:00;;;;;;;13.48;2.25;;;3.90;93.80;;;;;;5056756;28;20387;-82
2022/04/05 06:18:25;;;;;;;7.22;2.00;;;4.00;93.60;;;;;;5051658;28;20024;-82
2022/04/05 06:20:51;;;;;;;13.13;2.13;;;4.10;93.50;;;;;;5054249;28;20016;-82
2022/04/05 06:23:16;;;;;;;11.27;2.20;;;4.10;93.00;;;;;;5056437;28;20024;-82
2022/04/05 06:25:42;;;;;;;20.08;2.13;;;4.20;92.80;;;;;;5074624;28;20064;-82
2022/04/05 06:28:08;;;;;;;6.72;1.65;;;4.30;92.60;;;;;;5074633;28;20051;-83
2022/04/05 06:30:37;;;;;;;15.20;2.08;;;4.30;92.00;;;;;;5054375;28;20039;-82
2022/04/05 06:33:11;;;;;;;9.88;1.60;;;4.40;92.10;;;;;;5072421;28;20025;-82
2022/04/05 06:35:39;;;;;;;8.10;2.10;;;4.40;91.90;;;;;;5057413;28;20052;-82
2022/04/05 06:38:05;;;;;;;10.75;1.88;;;4.50;91.70;;;;;;5072612;28;20017;-82
2022/04/05 06:40:31;;;;;;;15.63;2.55;;;4.60;91.50;;;;;;5071854;28;20035;-82
2022/04/05 06:42:56;;;;;;;11.93;1.88;;;4.70;91.40;;;;;;5073301;28;20479;-82
2022/04/05 06:45:24;;;;;;;10.40;1.70;;;4.80;90.80;;;;;;5072279;28;20078;-83
2022/04/05 06:47:50;;;;;;;7.45;1.63;;;4.80;90.50;;;;;;5071236;28;20028;-82
2022/04/05 06:50:20;;;;;;;9.82;1.80;;;5.00;90.40;;;;;;5070232;28;20480;-82
2022/04/05 06:52:46;;;;;;;8.70;1.77;;;5.00;89.80;;;;;;5071893;28;20029;-82
2022/04/05 06:55:12;;;;;;;9.93;1.92;;;5.10;89.80;;;;;;5072862;28;20032;-82
2022/04/05 06:57:39;;;;;;;7.30;1.42;;;5.10;89.40;;;;;;5071229;28;20025;-82
2022/04/05 07:00:07;;;;;;;6.88;1.67;;;5.30;89.70;;;;;;5072974;28;20035;-82
2022/04/05 07:02:33;;;;;;;9.55;1.80;;;5.30;88.90;;;;;;5062109;28;20661;-82
2022/04/05 07:04:58;;;;;;;10.57;1.67;;;5.40;88.70;;;;;;5070800;28;20167;-82
2022/04/05 07:07:24;;;;;;;8.13;1.60;;;5.40;88.40;;;;;;5069763;28;20372;-81
2022/04/05 07:09:49;;;;;;;8.00;1.70;;;5.60;89.00;;;;;;5061990;28;20031;-82
2022/04/05 07:12:15;;;;;;;10.02;1.70;;;5.40;87.80;;;;;;5073434;28;20043;-81
2022/04/05 07:14:40;;;;;;;7.97;1.67;;;5.50;88.00;;;;;;5070039;28;20468;-80
2022/04/05 07:17:06;;;;;;;9.75;1.83;;;5.70;88.40;;;;;;5080748;28;20024;-81
2022/04/05 07:19:33;;;;;;;9.95;1.60;;;5.90;88.30;;;;;;5071016;28;20488;-81
2022/04/05 07:21:59;;;;;;;12.15;1.50;;;5.90;87.80;;;;;;5072300;28;20090;-82
2022/04/05 07:24:26;;;;;;;6.50;1.30;;;6.00;87.30;;;;;;5071447;28;20491;-82
2022/04/05 07:26:51;;;;;;;10.90;1.75;;;6.00;87.30;;;;;;5072257;28;20101;-82
2022/04/05 07:29:17;;;;;;;8.85;1.67;;;6.00;87.00;;;;;;5072373;28;20103;-82
2022/04/05 07:31:42;;;;;;;18.83;2.35;;;6.00;86.50;;;;;;5070858;28;20024;-81
2022/04/05 07:34:08;;;;;;;12.07;1.65;;;6.10;86.50;;;;;;5070722;28;20100;-81
2022/04/05 07:36:33;;;;;;;11.65;1.60;;;6.10;86.40;;;;;;5070729;28;20044;-82
2022/04/05 07:38:59;;;;;;;8.07;1.88;;;6.00;85.90;;;;;;5070562;28;20082;-82
2022/04/05 07:41:25;;;;;;;12.48;1.67;;;5.90;85.90;;;;;;5070772;28;20024;-82
2022/04/05 07:43:51;;;;;;;14.90;2.03;;;5.90;86.00;;;;;;5072430;28;20154;-82
2022/04/05 07:46:16;;;;;;;10.70;1.73;;;5.70;85.60;;;;;;5072597;28;20028;-82
2022/04/05 07:48:42;;;;;;;5.43;1.50;;;5.70;86.20;;;;;;5069882;28;20051;-82
2022/04/05 07:51:07;;;;;;;10.63;1.80;;;5.70;86.50;;;;;;5069872;28;20028;-82
2022/04/05 07:53:33;;;;;;;8.07;1.65;;;5.70;86.90;;;;;;5057448;28;20509;-82
2022/04/05 07:55:59;;;;;;;8.18;1.38;;;5.70;87.50;;;;;;5070525;28;20013;-81
2022/04/05 07:58:25;;;;;;;4.47;1.38;;;5.60;87.90;;;;;;5070359;28;20115;-81
2022/04/05 08:00:51;;;;;;;11.02;1.73;;;5.60;88.30;;;;;;5071089;28;20052;-81
2022/04/05 08:03:20;;;;;;;11.18;1.80;;;5.50;88.60;;;;;;5077064;28;20089;-81
2022/04/05 08:05:45;;;;;;;7.50;1.60;;;5.40;88.80;;;;;;5068782;28;20025;-81
2022/04/05 08:08:11;;;;;;;13.60;1.90;;;5.40;88.80;;;;;;5070678;28;20423;-81
2022/04/05 08:10:36;;;;;;;10.15;1.67;;;5.40;89.10;;;;;;5073012;28;20070;-82
2022/04/05 08:13:03;;;;;;;12.43;1.85;;;5.30;89.30;;;;;;5072904;28;20039;-82
2022/04/05 08:15:29;;;;;;;13.38;2.03;;;5.30;89.30;;;;;;5069572;28;20025;-82
2022/04/05 08:17:54;;;;;;;10.30;1.70;;;5.40;89.80;;;;;;5069933;28;20040;-82
2022/04/05 08:20:20;;;;;;;12.80;2.00;;;5.30;89.50;;;;;;5070762;28;20017;-82
2022/04/05 08:22:47;;;;;;;11.48;1.55;;;5.30;89.60;;;;;;5069692;28;20025;-82
2022/04/05 08:25:15;;;;;;;11.90;2.00;;;5.40;89.90;;;;;;5071135;28;20534;-81
2022/04/05 08:27:41;;;;;;;9.88;2.30;;;5.60;90.20;;;;;;5072285;28;20031;-81
2022/04/05 08:30:12;;;;;;;8.55;1.52;;;5.60;89.90;;;;;;5070820;28;20112;-82
2022/04/05 08:32:42;;;;;;;12.82;2.05;;;5.50;89.70;;;;;;5068579;28;20508;-81
2022/04/05 08:35:11;;;;;;;11.05;2.00;;;5.60;89.60;;;;;;5069364;28;20071;-81
2022/04/05 08:37:37;;;;;;;12.60;1.90;;;5.90;89.70;;;;;;5051707;28;20036;-81
2022/04/05 08:40:06;;;;;;;10.63;2.70;;;6.10;89.60;;;;;;5050740;28;20027;-81
2022/04/05 08:42:37;;;;;;;9.48;1.98;;;6.30;88.80;;;;;;5072024;28;20029;-81
2022/04/05 08:45:10;;;;;;;8.40;2.15;;;6.50;88.90;;;;;;5071716;28;20033;-82
2022/04/05 08:47:44;;;;;;;7.25;2.03;;;6.50;87.80;;;;;;5052674;28;20495;-82
2022/04/05 08:50:10;;;;;;;7.68;2.15;;;6.50;86.00;;;;;;5066493;28;20032;-82
2022/04/05 08:52:36;;;;;;;11.55;1.77;;;6.70;85.10;;;;;;5060899;28;20050;-82
2022/04/05 08:55:02;;;;;;;6.90;2.25;;;6.60;83.30;;;;;;5054263;28;20036;-82
2022/04/05 08:57:28;;;;;;;6.80;1.45;;;6.90;83.60;;;;;;5057499;28;20394;-82
2022/04/05 08:59:53;;;;;;;12.35;2.42;;;6.90;81.80;;;;;;5075368;28;20514;-82
2022/04/05 09:02:26;;;;;;;8.82;1.77;;;6.90;82.50;;;;;;5050485;28;20025;-82
2022/04/05 09:04:52;;;;;;;7.30;1.70;;;7.00;83.00;;;;;;5055174;28;20107;-82
2022/04/05 09:07:22;;;;;;;12.15;2.30;;;6.90;82.30;;;;;;5056511;28;20131;-82
2022/04/05 09:10:07;;;;;;;5.40;1.73;;;7.00;83.00;;;;;;5057285;28;20475;-82
2022/04/05 09:12:44;;;;;;;6.72;1.65;;;6.90;80.40;;;;;;5056880;28;20040;-82
2022/04/05 09:15:26;;;;;;;9.63;2.00;;;6.90;80.20;;;;;;5073683;28;20520;-82
2022/04/05 09:17:52;;;;;;;3.10;1.40;;;7.10;80.80;;;;;;5056323;28;20570;-82
2022/04/05 09:20:20;;;;;;;6.38;1.33;;;7.00;79.60;;;;;;5073789;28;20016;-82
2022/04/05 09:22:46;;;;;;;9.13;2.08;;;7.10;79.50;;;;;;5056522;28;20479;-82
2022/04/05 09:25:16;;;;;;;6.47;1.50;;;7.20;79.50;;;;;;5056698;28;20043;-82
2022/04/05 09:27:53;;;;;;;6.65;1.67;;;7.40;78.90;;;;;;5056624;28;20510;-82
2022/04/05 09:30:23;;;;;;;6.47;1.60;;;7.50;77.90;;;;;;5045693;28;20055;-82
2022/04/05 09:32:49;;;;;;;5.38;1.55;;;7.50;77.60;;;;;;5067471;28;20059;-82
2022/04/05 09:35:18;;;;;;;5.55;1.80;;;7.60;77.50;;;;;;5042179;28;20056;-85
2022/04/05 09:37:44;;;;;;;7.93;2.35;;;7.70;77.70;;;;;;5066275;28;20107;-82
2022/04/05 09:40:19;;;;;;;8.77;1.90;;;7.50;75.60;;;;;;5071916;28;20017;-82
2022/04/05 09:43:00;;;;;;;7.93;1.95;;;7.40;75.80;;;;;;5067094;28;20040;-82
2022/04/05 09:46:00;;;;;;;6.38;1.88;;;7.30;75.50;;;;;;5072618;28;20484;-82
2022/04/05 09:48:29;;;;;;;5.95;1.90;;;7.20;76.00;;;;;;5049547;28;20047;-83
2022/04/05 09:51:14;;;;;;;5.28;1.58;;;7.10;76.80;;;;;;5073261;28;20036;-82
2022/04/05 09:53:39;;;;;;;6.00;1.70;;;7.10;77.60;;;;;;5074668;28;20028;-82
2022/04/05 09:56:11;;;;;;;7.47;1.70;;;7.20;78.10;;;;;;5072832;28;20020;-82
2022/04/05 09:58:52;;;;;;;7.93;1.88;;;7.20;77.80;;;;;;5070741;28;20479;-82
2022/04/05 10:01:23;;;;;;;8.88;1.55;;;7.30;78.90;;;;;;5061002;28;20013;-82
2022/04/05 10:04:09;;;;;;;4.05;1.42;;;7.50;78.50;;;;;;5069663;28;20437;-82
2022/04/05 10:06:39;;;;;;;10.15;1.85;;;7.60;78.40;;;;;;5061754;28;20384;-82
2022/04/05 10:09:06;;;;;;;7.03;1.65;;;7.60;77.50;;;;;;5072351;28;20429;-82
2022/04/05 10:11:34;;;;;;;8.75;1.45;;;7.80;77.70;;;;;;5073839;28;20105;-83
2022/04/05 10:14:00;;;;;;;6.40;1.38;;;7.80;76.40;;;;;;5058977;28;20399;-82
2022/04/05 10:16:28;;;;;;;4.75;1.20;;;7.80;76.00;;;;;;5067139;28;20031;-82
2022/04/05 10:18:59;;;;;;;6.22;1.20;;;7.70;75.30;;;;;;5060121;28;20058;-82
2022/04/05 10:21:29;;;;;;;6.47;1.27;;;7.60;75.30;;;;;;5071424;28;20028;-82
2022/04/05 10:23:56;;;;;;;9.35;1.50;;;7.50;75.30;;;;;;5073404;28;20090;-82
2022/04/05 10:26:30;;;;;;;9.18;4.05;;;7.60;75.80;;;;;;5073132;28;20039;-82
2022/04/05 10:28:58;;;;;;;5.43;1.33;;;7.60;77.00;;;;;;5072786;28;20024;-82
2022/04/05 10:31:23;;;;;;;5.72;1.50;;;7.60;76.90;;;;;;5062481;28;20454;-83
2022/04/05 10:34:14;;;;;;;5.43;1.40;;;7.50;76.40;;;;;;5071167;28;20111;-82
2022/04/05 10:36:40;;;;;;;10.20;1.80;;;7.40;75.40;;;;;;5069017;28;20048;-82
2022/04/05 10:39:16;;;;;;;7.63;1.65;;;7.40;76.50;;;;;;5070297;28;20044;-82
2022/04/05 10:41:43;;;;;;;6.80;1.73;;;7.40;77.20;;;;;;5056178;28;20039;-82
2022/04/05 10:44:18;;;;;;;6.45;1.58;;;7.30;78.30;;;;;;5049685;28;20392;-82
2022/04/05 10:46:53;;;;;;;11.75;1.83;;;7.20;77.90;;;;;;5048655;28;20124;-82
2022/04/05 10:49:45;;;;;;;4.38;1.38;;;7.30;79.50;;;;;;5051633;28;20036;-82
2022/04/05 10:52:27;;;;;;;6.05;1.25;;;7.20;80.40;;;;;;5054865;28;20036;-83
2022/04/05 10:55:04;;;;;;;10.13;1.33;;;7.20;80.80;;;;;;5061340;28;20029;-82
2022/04/05 10:57:31;;;;;;;7.43;1.27;;;7.20;81.40;;;;;;5061452;28;20024;-82
2022/04/05 10:59:58;;;;;;;4.38;1.10;;;7.10;80.60;;;;;;5053534;28;20476;-82
2022/04/05 11:02:44;;;;;;;7.93;1.45;;;7.20;81.00;;;;;;5048842;28;20123;-82
2022/04/05 11:05:18;;;;;;;6.45;1.30;;;7.10;81.00;;;;;;5053795;28;20077;-82
2022/04/05 11:07:59;;;;;;;5.05;0.90;;;7.10;81.80;;;;;;5053370;28;20033;-82
2022/04/05 11:10:45;;;;;;;4.55;0.90;;;7.00;81.40;;;;;;5054944;28;20421;-82
2022/04/05 11:13:20;;;;;;;6.30;1.27;;;6.90;81.70;;;;;;5049084;28;20095;-82
2022/04/05 11:15:47;;;;;;;9.00;1.67;;;6.90;82.10;;;;;;5073432;28;20108;-82
2022/04/05 11:18:21;;;;;;;8.23;1.33;;;6.80;81.80;;;;;;5071515;28;20024;-82
2022/04/05 11:20:48;;;;;;;6.10;1.48;;;6.80;82.90;;;;;;5053539;28;20037;-82
2022/04/05 11:23:18;;;;;;;7.00;1.25;;;6.90;83.90;;;;;;5054923;28;20526;-82
2022/04/05 11:25:44;;;;;;;9.50;2.17;;;7.00;83.90;;;;;;5055048;28;20122;-82
2022/04/05 11:28:21;;;;;;;7.80;3.05;;;7.00;84.40;;;;;;5055465;28;20025;-82
2022/04/05 11:30:52;;;;;;;9.25;2.53;;;7.10;84.50;;;;;;5064230;28;20032;-82
2022/04/05 11:33:21;;;;;;;7.22;3.38;;;7.10;85.20;;;;;;5054630;28;20024;-82
2022/04/05 11:36:09;;;;;;;8.77;1.90;;;7.20;85.70;;;;;;5068995;28;20033;-82
2022/04/05 11:38:53;;;;;;;7.47;1.98;;;7.30;85.10;;;;;;5059917;28;20048;-82
2022/04/05 11:41:31;;;;;;;7.65;1.42;;;7.10;84.20;;;;;;5072211;28;20545;-82
2022/04/05 11:44:06;;;;;;;7.75;2.03;;;7.10;84.60;;;;;;5054744;28;20063;-82
2022/04/05 11:46:35;;;;;;;6.18;1.75;;;6.90;85.00;;;;;;5051216;28;20059;-82
2022/04/05 11:49:11;;;;;;;6.55;1.40;;;7.00;85.40;;;;;;5057926;28;20279;-82
2022/04/05 11:51:43;;;;;;;7.60;1.80;;;7.10;85.00;;;;;;5051968;28;20064;-82
2022/04/05 11:54:12;;;;;;;4.70;1.48;;;7.10;85.10;;;;;;5042158;28;20049;-83
2022/04/05 11:56:41;;;;;;;4.13;1.80;;;7.10;84.60;;;;;;5053293;28;20056;-82
2022/04/05 11:59:09;;;;;;;5.70;1.73;;;7.20;85.20;;;;;;5053251;28;20111;-82
2022/04/05 12:01:37;;;;;;;4.85;1.88;;;7.20;84.80;;;;;;5053736;28;20021;-82
2022/04/05 12:04:12;;;;;;;9.00;2.42;;;7.10;84.50;;;;;;5048735;28;20057;-82
2022/04/05 12:06:40;;;;;;;7.05;1.98;;;7.10;84.40;;;;;;5050372;28;20050;-82
2022/04/05 12:09:13;;;;;;;3.47;1.60;;;7.10;85.10;;;;;;5053291;28;20056;-82
2022/04/05 12:11:43;;;;;;;4.50;1.80;;;7.10;85.10;;;;;;5054821;28;20036;-82
2022/04/05 12:14:20;;;;;;;4.70;2.22;;;7.10;85.00;;;;;;5047074;28;20067;-82
2022/04/05 12:16:53;;;;;;;5.68;1.98;;;7.20;85.70;;;;;;5072557;28;20027;-82
2022/04/05 12:19:22;;;;;;;4.30;1.90;;;7.20;85.30;;;;;;5052052;28;20086;-82
2022/04/05 12:21:55;;;;;;;5.78;1.85;;;7.40;84.80;;;;;;5067960;28;20419;-82
2022/04/05 12:24:21;;;;;;;6.07;1.85;;;7.40;85.20;;;;;;5071620;28;20017;-82
2022/04/05 12:26:47;;;;;;;5.28;1.88;;;7.20;85.20;;;;;;5054614;28;20085;-82
2022/04/05 12:29:13;;;;;;;5.63;2.35;;;7.10;85.60;;;;;;5072950;28;20032;-82
2022/04/05 12:31:38;;;;;;;8.73;2.75;;;7.00;85.50;;;;;;5075436;28;20387;-82
2022/04/05 12:34:11;;;;;;;6.75;2.30;;;7.10;86.20;;;;;;5056818;28;20171;-82
2022/04/05 12:36:44;;;;;;;7.95;2.78;;;7.00;86.10;;;;;;5069292;28;20048;-82
2022/04/05 12:39:22;;;;;;;10.52;2.70;;;7.10;86.30;;;;;;5074481;28;20490;-82
2022/04/05 12:41:54;;;;;;;6.07;2.70;;;7.30;87.00;;;;;;5070697;28;20050;-82
2022/04/05 12:44:22;;;;;;;5.28;2.25;;;7.40;87.40;;;;;;5074699;28;20028;-82
2022/04/05 12:46:51;;;;;;;5.40;2.50;;;7.50;87.30;;;;;;5074270;28;20044;-82
2022/04/05 12:49:19;;;;;;;6.18;2.20;;;7.40;86.40;;;;;;5073181;28;20029;-82
2022/04/05 12:51:45;;;;;;;5.13;2.15;;;7.50;87.10;;;;;;5070543;28;20507;-82
2022/04/05 12:54:29;;;;;;;5.05;2.00;;;7.40;86.40;;;;;;5073090;28;20066;-82
2022/04/05 12:57:23;;;;;;;6.32;1.70;;;7.50;86.20;;;;;;5069567;28;20498;-82